sensor_id;sensor_type;location;lat;lon;timestamp;P1;P2;P0
76421;PMS5003;65254;52.354;13.614;2023-06-10T00:00:01;5;5;
76421;PMS5003;65254;52.354;13.614;2023-06-10T00:04:01;5;5;
76421;PMS5003;65254;52.354;13.614;2023-06-10T00:08:01;5;5;
76421;PMS5003;65254;52.354;13.614;2023-06-10T00:12:00;5;5;
76421;PMS5003;65254;52.354;13.614;2023-06-10T00:16:00;5;5;
76421;PMS5003;65254;52.354;13.614;2023-06-10T00:20:00;5;5;
76421;PMS5003;65254;52.354;13.614;2023-06-10T00:24:00;5;5;
76421;PMS5003;65254;52.354;13.614;2023-06-10T00:28:01;5;5;
76421;PMS5003;65254;52.354;13.614;2023-06-10T00:32:01;6;6;
76421;PMS5003;65254;52.354;13.614;2023-06-10T00:36:00;4;4;
76421;PMS5003;65254;52.354;13.614;2023-06-10T00:40:00;4;4;
76421;PMS5003;65254;52.354;13.614;2023-06-10T00:44:01;6;6;
76421;PMS5003;65254;52.354;13.614;2023-06-10T00:48:01;5;5;
76421;PMS5003;65254;52.354;13.614;2023-06-10T00:52:01;5;5;
76421;PMS5003;65254;52.354;13.614;2023-06-10T00:56:00;5;5;
76421;PMS5003;65254;52.354;13.614;2023-06-10T01:00:00;5;5;
76421;PMS5003;65254;52.354;13.614;2023-06-10T01:04:00;6;6;
76421;PMS5003;65254;52.354;13.614;2023-06-10T01:08:04;5;5;
76421;PMS5003;65254;52.354;13.614;2023-06-10T01:12:05;5;5;
76421;PMS5003;65254;52.354;13.614;2023-06-10T01:16:01;5;5;
76421;PMS5003;65254;52.354;13.614;2023-06-10T01:20:00;5;5;
76421;PMS5003;65254;52.354;13.614;2023-06-10T01:24:01;5;5;
76421;PMS5003;65254;52.354;13.614;2023-06-10T01:28:04;5;5;
76421;PMS5003;65254;52.354;13.614;2023-06-10T01:32:04;5;5;
76421;PMS5003;65254;52.354;13.614;2023-06-10T01:36:02;5;5;
76421;PMS5003;65254;52.354;13.614;2023-06-10T01:40:02;5;5;
76421;PMS5003;65254;52.354;13.614;2023-06-10T01:44:00;5;5;
76421;PMS5003;65254;52.354;13.614;2023-06-10T01:48:00;5;5;
76421;PMS5003;65254;52.354;13.614;2023-06-10T01:52:00;4;4;
76421;PMS5003;65254;52.354;13.614;2023-06-10T01:56:00;5;5;
76421;PMS5003;65254;52.354;13.614;2023-06-10T02:00:00;5;5;
76421;PMS5003;65254;52.354;13.614;2023-06-10T02:04:01;5;5;
76421;PMS5003;65254;52.354;13.614;2023-06-10T02:08:00;5;5;
76421;PMS5003;65254;52.354;13.614;2023-06-10T02:12:01;5;5;
76421;PMS5003;65254;52.354;13.614;2023-06-10T02:16:00;5;5;
76421;PMS5003;65254;52.354;13.614;2023-06-10T02:20:01;5;5;
76421;PMS5003;65254;52.354;13.614;2023-06-10T02:24:00;5;5;
76421;PMS5003;65254;52.354;13.614;2023-06-10T02:28:00;4;4;
76421;PMS5003;65254;52.354;13.614;2023-06-10T02:32:02;5;5;
76421;PMS5003;65254;52.354;13.614;2023-06-10T02:36:00;6;6;
76421;PMS5003;65254;52.354;13.614;2023-06-10T02:40:00;5;5;
76421;PMS5003;65254;52.354;13.614;2023-06-10T02:44:01;5;5;
76421;PMS5003;65254;52.354;13.614;2023-06-10T02:48:01;6;6;
76421;PMS5003;65254;52.354;13.614;2023-06-10T02:52:00;5;5;
76421;PMS5003;65254;52.354;13.614;2023-06-10T02:56:00;5;5;
76421;PMS5003;65254;52.354;13.614;2023-06-10T03:00:00;5;5;
76421;PMS5003;65254;52.354;13.614;2023-06-10T03:04:00;5;5;
76421;PMS5003;65254;52.354;13.614;2023-06-10T03:08:00;5;5;
76421;PMS5003;65254;52.354;13.614;2023-06-10T03:12:00;5;5;
76421;PMS5003;65254;52.354;13.614;2023-06-10T03:16:00;5;5;
76421;PMS5003;65254;52.354;13.614;2023-06-10T03:20:00;5;5;
76421;PMS5003;65254;52.354;13.614;2023-06-10T03:24:00;5;5;
76421;PMS5003;65254;52.354;13.614;2023-06-10T03:28:00;6;6;
76421;PMS5003;65254;52.354;13.614;2023-06-10T03:32:00;6;6;
76421;PMS5003;65254;52.354;13.614;2023-06-10T03:36:00;5;5;
76421;PMS5003;65254;52.354;13.614;2023-06-10T03:40:01;6;6;
76421;PMS5003;65254;52.354;13.614;2023-06-10T03:44:00;5;5;
76421;PMS5003;65254;52.354;13.614;2023-06-10T03:48:01;5;5;
76421;PMS5003;65254;52.354;13.614;2023-06-10T03:52:00;6;6;
76421;PMS5003;65254;52.354;13.614;2023-06-10T03:56:00;5;5;
76421;PMS5003;65254;52.354;13.614;2023-06-10T04:00:00;5;5;
76421;PMS5003;65254;52.354;13.614;2023-06-10T04:04:00;6;6;
76421;PMS5003;65254;52.354;13.614;2023-06-10T04:08:00;6;6;
76421;PMS5003;65254;52.354;13.614;2023-06-10T04:12:00;5;5;
76421;PMS5003;65254;52.354;13.614;2023-06-10T04:16:00;6;6;
76421;PMS5003;65254;52.354;13.614;2023-06-10T04:20:01;6;6;
76421;PMS5003;65254;52.354;13.614;2023-06-10T04:24:00;7;7;
76421;PMS5003;65254;52.354;13.614;2023-06-10T04:28:00;6;6;
76421;PMS5003;65254;52.354;13.614;2023-06-10T04:32:01;7;7;
76421;PMS5003;65254;52.354;13.614;2023-06-10T04:36:00;7;7;
76421;PMS5003;65254;52.354;13.614;2023-06-10T04:40:00;7;7;
76421;PMS5003;65254;52.354;13.614;2023-06-10T04:44:00;7;7;
76421;PMS5003;65254;52.354;13.614;2023-06-10T04:48:00;7;7;
76421;PMS5003;65254;52.354;13.614;2023-06-10T04:52:00;7;7;
76421;PMS5003;65254;52.354;13.614;2023-06-10T04:56:00;9;8;
76421;PMS5003;65254;52.354;13.614;2023-06-10T05:00:01;9;8;
76421;PMS5003;65254;52.354;13.614;2023-06-10T05:04:00;7;7;
76421;PMS5003;65254;52.354;13.614;2023-06-10T05:08:00;8;7;
76421;PMS5003;65254;52.354;13.614;2023-06-10T05:12:00;9;8;
76421;PMS5003;65254;52.354;13.614;2023-06-10T05:16:01;9;8;
76421;PMS5003;65254;52.354;13.614;2023-06-10T05:20:00;9;8;
76421;PMS5003;65254;52.354;13.614;2023-06-10T05:24:01;9;8;
76421;PMS5003;65254;52.354;13.614;2023-06-10T05:28:00;10;9;
76421;PMS5003;65254;52.354;13.614;2023-06-10T05:32:00;9;8;
76421;PMS5003;65254;52.354;13.614;2023-06-10T05:36:00;9;8;
76421;PMS5003;65254;52.354;13.614;2023-06-10T05:40:00;10;9;
76421;PMS5003;65254;52.354;13.614;2023-06-10T05:44:00;10;9;
76421;PMS5003;65254;52.354;13.614;2023-06-10T05:48:00;10;9;
76421;PMS5003;65254;52.354;13.614;2023-06-10T05:52:00;9;8;
76421;PMS5003;65254;52.354;13.614;2023-06-10T05:56:00;10;9;
76421;PMS5003;65254;52.354;13.614;2023-06-10T06:00:01;10;9;
76421;PMS5003;65254;52.354;13.614;2023-06-10T06:04:00;9;8;
76421;PMS5003;65254;52.354;13.614;2023-06-10T06:08:00;10;9;
76421;PMS5003;65254;52.354;13.614;2023-06-10T06:12:00;10;9;
76421;PMS5003;65254;52.354;13.614;2023-06-10T06:16:00;10;9;
76421;PMS5003;65254;52.354;13.614;2023-06-10T06:20:01;11;10;
76421;PMS5003;65254;52.354;13.614;2023-06-10T06:24:01;10;9;
76421;PMS5003;65254;52.354;13.614;2023-06-10T06:28:00;10;9;
76421;PMS5003;65254;52.354;13.614;2023-06-10T06:32:00;11;10;
76421;PMS5003;65254;52.354;13.614;2023-06-10T06:36:00;11;10;
76421;PMS5003;65254;52.354;13.614;2023-06-10T06:40:05;11;10;
76421;PMS5003;65254;52.354;13.614;2023-06-10T06:44:00;10;9;
76421;PMS5003;65254;52.354;13.614;2023-06-10T06:48:00;10;9;
76421;PMS5003;65254;52.354;13.614;2023-06-10T06:52:00;11;10;
76421;PMS5003;65254;52.354;13.614;2023-06-10T06:56:00;10;9;
76421;PMS5003;65254;52.354;13.614;2023-06-10T07:00:00;11;10;
76421;PMS5003;65254;52.354;13.614;2023-06-10T07:04:00;11;10;
76421;PMS5003;65254;52.354;13.614;2023-06-10T07:08:00;11;10;
76421;PMS5003;65254;52.354;13.614;2023-06-10T07:12:00;12;11;
76421;PMS5003;65254;52.354;13.614;2023-06-10T07:16:00;11;10;
76421;PMS5003;65254;52.354;13.614;2023-06-10T07:20:00;12;11;
76421;PMS5003;65254;52.354;13.614;2023-06-10T07:24:00;11;10;
76421;PMS5003;65254;52.354;13.614;2023-06-10T07:28:00;11;10;
76421;PMS5003;65254;52.354;13.614;2023-06-10T07:32:00;12;11;
76421;PMS5003;65254;52.354;13.614;2023-06-10T07:36:00;11;10;
76421;PMS5003;65254;52.354;13.614;2023-06-10T07:40:00;11;10;
76421;PMS5003;65254;52.354;13.614;2023-06-10T07:44:01;11;10;
76421;PMS5003;65254;52.354;13.614;2023-06-10T07:48:00;11;10;
76421;PMS5003;65254;52.354;13.614;2023-06-10T07:52:00;12;11;
76421;PMS5003;65254;52.354;13.614;2023-06-10T07:56:00;12;11;
76421;PMS5003;65254;52.354;13.614;2023-06-10T08:00:00;10;9;
76421;PMS5003;65254;52.354;13.614;2023-06-10T08:04:01;11;10;
76421;PMS5003;65254;52.354;13.614;2023-06-10T08:08:04;11;10;
76421;PMS5003;65254;52.354;13.614;2023-06-10T08:12:01;11;10;
76421;PMS5003;65254;52.354;13.614;2023-06-10T08:16:00;12;11;
76421;PMS5003;65254;52.354;13.614;2023-06-10T08:20:01;13;12;
76421;PMS5003;65254;52.354;13.614;2023-06-10T08:24:00;12;11;
76421;PMS5003;65254;52.354;13.614;2023-06-10T08:28:00;12;11;
76421;PMS5003;65254;52.354;13.614;2023-06-10T08:32:00;11;10;
76421;PMS5003;65254;52.354;13.614;2023-06-10T08:36:00;11;10;
76421;PMS5003;65254;52.354;13.614;2023-06-10T08:40:00;11;10;
76421;PMS5003;65254;52.354;13.614;2023-06-10T08:44:03;12;11;
76421;PMS5003;65254;52.354;13.614;2023-06-10T08:48:02;12;11;
76421;PMS5003;65254;52.354;13.614;2023-06-10T08:52:02;11;10;
76421;PMS5003;65254;52.354;13.614;2023-06-10T08:56:04;11;10;
76421;PMS5003;65254;52.354;13.614;2023-06-10T09:00:00;11;10;
76421;PMS5003;65254;52.354;13.614;2023-06-10T09:04:01;11;10;
76421;PMS5003;65254;52.354;13.614;2023-06-10T09:08:01;12;11;
76421;PMS5003;65254;52.354;13.614;2023-06-10T09:12:00;11;10;
76421;PMS5003;65254;52.354;13.614;2023-06-10T09:16:00;11;10;
76421;PMS5003;65254;52.354;13.614;2023-06-10T09:20:00;11;10;
76421;PMS5003;65254;52.354;13.614;2023-06-10T09:24:01;13;12;
76421;PMS5003;65254;52.354;13.614;2023-06-10T09:28:00;11;10;
76421;PMS5003;65254;52.354;13.614;2023-06-10T09:32:01;11;10;
76421;PMS5003;65254;52.354;13.614;2023-06-10T09:36:02;11;10;
76421;PMS5003;65254;52.354;13.614;2023-06-10T09:40:03;11;10;
76421;PMS5003;65254;52.354;13.614;2023-06-10T09:44:01;11;10;
76421;PMS5003;65254;52.354;13.614;2023-06-10T09:48:01;12;11;
76421;PMS5003;65254;52.354;13.614;2023-06-10T09:52:05;10;9;
76421;PMS5003;65254;52.354;13.614;2023-06-10T09:56:00;11;10;
76421;PMS5003;65254;52.354;13.614;2023-06-10T10:00:04;12;11;
76421;PMS5003;65254;52.354;13.614;2023-06-10T10:04:00;10;9;
76421;PMS5003;65254;52.354;13.614;2023-06-10T10:08:00;11;10;
76421;PMS5003;65254;52.354;13.614;2023-06-10T10:12:01;10;9;
76421;PMS5003;65254;52.354;13.614;2023-06-10T10:16:04;10;9;
76421;PMS5003;65254;52.354;13.614;2023-06-10T10:20:02;10;9;
76421;PMS5003;65254;52.354;13.614;2023-06-10T10:24:04;10;9;
76421;PMS5003;65254;52.354;13.614;2023-06-10T10:28:06;9;8;
76421;PMS5003;65254;52.354;13.614;2023-06-10T10:32:01;10;9;
76421;PMS5003;65254;52.354;13.614;2023-06-10T10:36:00;9;8;
76421;PMS5003;65254;52.354;13.614;2023-06-10T10:40:02;9;8;
76421;PMS5003;65254;52.354;13.614;2023-06-10T10:44:01;9;8;
76421;PMS5003;65254;52.354;13.614;2023-06-10T10:48:05;9;8;
76421;PMS5003;65254;52.354;13.614;2023-06-10T10:52:01;10;9;
76421;PMS5003;65254;52.354;13.614;2023-06-10T10:56:04;10;9;
76421;PMS5003;65254;52.354;13.614;2023-06-10T11:00:00;10;9;
76421;PMS5003;65254;52.354;13.614;2023-06-10T11:04:01;9;8;
76421;PMS5003;65254;52.354;13.614;2023-06-10T11:08:00;9;8;
76421;PMS5003;65254;52.354;13.614;2023-06-10T11:12:00;9;8;
76421;PMS5003;65254;52.354;13.614;2023-06-10T11:16:04;9;8;
76421;PMS5003;65254;52.354;13.614;2023-06-10T11:20:00;8;7;
76421;PMS5003;65254;52.354;13.614;2023-06-10T11:24:12;10;9;
76421;PMS5003;65254;52.354;13.614;2023-06-10T11:28:00;9;8;
76421;PMS5003;65254;52.354;13.614;2023-06-10T11:32:04;9;8;
76421;PMS5003;65254;52.354;13.614;2023-06-10T11:36:00;9;8;
76421;PMS5003;65254;52.354;13.614;2023-06-10T11:40:02;9;8;
76421;PMS5003;65254;52.354;13.614;2023-06-10T11:44:02;9;8;
76421;PMS5003;65254;52.354;13.614;2023-06-10T11:48:01;9;8;
76421;PMS5003;65254;52.354;13.614;2023-06-10T11:52:04;9;8;
76421;PMS5003;65254;52.354;13.614;2023-06-10T11:56:00;9;8;
76421;PMS5003;65254;52.354;13.614;2023-06-10T12:00:03;9;8;
76421;PMS5003;65254;52.354;13.614;2023-06-10T12:04:02;9;8;
76421;PMS5003;65254;52.354;13.614;2023-06-10T12:08:08;10;9;
76421;PMS5003;65254;52.354;13.614;2023-06-10T12:12:03;9;8;
76421;PMS5003;65254;52.354;13.614;2023-06-10T12:16:09;9;8;
76421;PMS5003;65254;52.354;13.614;2023-06-10T12:20:02;10;9;
76421;PMS5003;65254;52.354;13.614;2023-06-10T12:24:03;9;8;
76421;PMS5003;65254;52.354;13.614;2023-06-10T12:28:00;9;8;
76421;PMS5003;65254;52.354;13.614;2023-06-10T12:32:02;10;9;
76421;PMS5003;65254;52.354;13.614;2023-06-10T12:36:00;9;8;
76421;PMS5003;65254;52.354;13.614;2023-06-10T12:40:01;9;8;
76421;PMS5003;65254;52.354;13.614;2023-06-10T12:44:01;9;8;
76421;PMS5003;65254;52.354;13.614;2023-06-10T12:48:04;9;8;
76421;PMS5003;65254;52.354;13.614;2023-06-10T12:52:00;9;8;
76421;PMS5003;65254;52.354;13.614;2023-06-10T12:56:00;9;8;
76421;PMS5003;65254;52.354;13.614;2023-06-10T13:00:00;7;7;
76421;PMS5003;65254;52.354;13.614;2023-06-10T13:04:00;6;6;
76421;PMS5003;65254;52.354;13.614;2023-06-10T13:08:00;6;6;
76421;PMS5003;65254;52.354;13.614;2023-06-10T13:12:00;7;7;
76421;PMS5003;65254;52.354;13.614;2023-06-10T13:16:00;6;6;
76421;PMS5003;65254;52.354;13.614;2023-06-10T13:20:01;7;7;
76421;PMS5003;65254;52.354;13.614;2023-06-10T13:24:01;7;7;
76421;PMS5003;65254;52.354;13.614;2023-06-10T13:28:00;7;7;
76421;PMS5003;65254;52.354;13.614;2023-06-10T13:32:00;6;6;
76421;PMS5003;65254;52.354;13.614;2023-06-10T13:36:00;7;7;
76421;PMS5003;65254;52.354;13.614;2023-06-10T13:40:00;6;6;
76421;PMS5003;65254;52.354;13.614;2023-06-10T13:44:00;7;7;
76421;PMS5003;65254;52.354;13.614;2023-06-10T13:48:01;6;6;
76421;PMS5003;65254;52.354;13.614;2023-06-10T13:52:00;6;6;
76421;PMS5003;65254;52.354;13.614;2023-06-10T13:56:00;6;6;
76421;PMS5003;65254;52.354;13.614;2023-06-10T14:00:00;6;6;
76421;PMS5003;65254;52.354;13.614;2023-06-10T14:04:01;6;6;
76421;PMS5003;65254;52.354;13.614;2023-06-10T14:08:00;7;7;
76421;PMS5003;65254;52.354;13.614;2023-06-10T14:12:00;6;6;
76421;PMS5003;65254;52.354;13.614;2023-06-10T14:16:00;7;7;
76421;PMS5003;65254;52.354;13.614;2023-06-10T14:20:00;7;7;
76421;PMS5003;65254;52.354;13.614;2023-06-10T14:24:00;7;7;
76421;PMS5003;65254;52.354;13.614;2023-06-10T14:28:00;7;7;
76421;PMS5003;65254;52.354;13.614;2023-06-10T14:32:01;6;6;
76421;PMS5003;65254;52.354;13.614;2023-06-10T14:36:00;7;7;
76421;PMS5003;65254;52.354;13.614;2023-06-10T14:40:01;7;7;
76421;PMS5003;65254;52.354;13.614;2023-06-10T14:44:00;7;7;
76421;PMS5003;65254;52.354;13.614;2023-06-10T14:48:00;6;6;
76421;PMS5003;65254;52.354;13.614;2023-06-10T14:52:00;6;6;
76421;PMS5003;65254;52.354;13.614;2023-06-10T14:56:00;6;6;
76421;PMS5003;65254;52.354;13.614;2023-06-10T15:00:00;6;6;
76421;PMS5003;65254;52.354;13.614;2023-06-10T15:04:00;7;7;
76421;PMS5003;65254;52.354;13.614;2023-06-10T15:08:00;6;6;
76421;PMS5003;65254;52.354;13.614;2023-06-10T15:12:00;5;5;
76421;PMS5003;65254;52.354;13.614;2023-06-10T15:16:04;6;6;
76421;PMS5003;65254;52.354;13.614;2023-06-10T15:20:00;6;6;
76421;PMS5003;65254;52.354;13.614;2023-06-10T15:24:00;6;6;
76421;PMS5003;65254;52.354;13.614;2023-06-10T15:28:00;5;5;
76421;PMS5003;65254;52.354;13.614;2023-06-10T15:32:01;5;5;
76421;PMS5003;65254;52.354;13.614;2023-06-10T15:36:00;6;6;
76421;PMS5003;65254;52.354;13.614;2023-06-10T15:40:00;6;6;
76421;PMS5003;65254;52.354;13.614;2023-06-10T15:44:01;6;6;
76421;PMS5003;65254;52.354;13.614;2023-06-10T15:48:00;5;5;
76421;PMS5003;65254;52.354;13.614;2023-06-10T15:52:00;4;4;
76421;PMS5003;65254;52.354;13.614;2023-06-10T15:56:00;5;5;
76421;PMS5003;65254;52.354;13.614;2023-06-10T16:00:00;6;6;
76421;PMS5003;65254;52.354;13.614;2023-06-10T16:04:01;5;5;
76421;PMS5003;65254;52.354;13.614;2023-06-10T16:08:03;5;5;
76421;PMS5003;65254;52.354;13.614;2023-06-10T16:12:01;6;6;
76421;PMS5003;65254;52.354;13.614;2023-06-10T16:16:00;6;6;
76421;PMS5003;65254;52.354;13.614;2023-06-10T16:20:00;5;5;
76421;PMS5003;65254;52.354;13.614;2023-06-10T16:24:00;5;5;
76421;PMS5003;65254;52.354;13.614;2023-06-10T16:28:01;4;4;
76421;PMS5003;65254;52.354;13.614;2023-06-10T16:32:04;5;5;
76421;PMS5003;65254;52.354;13.614;2023-06-10T16:36:01;6;6;
76421;PMS5003;65254;52.354;13.614;2023-06-10T16:40:00;6;6;
76421;PMS5003;65254;52.354;13.614;2023-06-10T16:44:04;7;7;
76421;PMS5003;65254;52.354;13.614;2023-06-10T16:48:00;6;6;
76421;PMS5003;65254;52.354;13.614;2023-06-10T16:52:00;6;6;
76421;PMS5003;65254;52.354;13.614;2023-06-10T16:56:04;6;6;
76421;PMS5003;65254;52.354;13.614;2023-06-10T17:00:00;5;5;
76421;PMS5003;65254;52.354;13.614;2023-06-10T17:04:00;5;5;
76421;PMS5003;65254;52.354;13.614;2023-06-10T17:08:00;5;5;
76421;PMS5003;65254;52.354;13.614;2023-06-10T17:12:00;5;5;
76421;PMS5003;65254;52.354;13.614;2023-06-10T17:16:00;5;5;
76421;PMS5003;65254;52.354;13.614;2023-06-10T17:20:01;5;5;
76421;PMS5003;65254;52.354;13.614;2023-06-10T17:24:00;5;5;
76421;PMS5003;65254;52.354;13.614;2023-06-10T17:28:00;5;5;
76421;PMS5003;65254;52.354;13.614;2023-06-10T17:32:01;5;5;
76421;PMS5003;65254;52.354;13.614;2023-06-10T17:36:00;5;5;
76421;PMS5003;65254;52.354;13.614;2023-06-10T17:40:00;5;5;
76421;PMS5003;65254;52.354;13.614;2023-06-10T17:44:00;5;5;
76421;PMS5003;65254;52.354;13.614;2023-06-10T17:48:00;5;5;
76421;PMS5003;65254;52.354;13.614;2023-06-10T17:52:00;5;5;
76421;PMS5003;65254;52.354;13.614;2023-06-10T17:56:02;5;5;
76421;PMS5003;65254;52.354;13.614;2023-06-10T18:00:00;4;4;
76421;PMS5003;65254;52.354;13.614;2023-06-10T18:04:04;5;5;
76421;PMS5003;65254;52.354;13.614;2023-06-10T18:08:00;5;5;
76421;PMS5003;65254;52.354;13.614;2023-06-10T18:12:00;5;5;
76421;PMS5003;65254;52.354;13.614;2023-06-10T18:16:00;5;5;
76421;PMS5003;65254;52.354;13.614;2023-06-10T18:20:00;5;5;
76421;PMS5003;65254;52.354;13.614;2023-06-10T18:24:01;5;5;
76421;PMS5003;65254;52.354;13.614;2023-06-10T18:28:00;5;5;
76421;PMS5003;65254;52.354;13.614;2023-06-10T18:32:01;5;5;
76421;PMS5003;65254;52.354;13.614;2023-06-10T18:36:00;5;5;
76421;PMS5003;65254;52.354;13.614;2023-06-10T18:40:01;6;6;
76421;PMS5003;65254;52.354;13.614;2023-06-10T18:44:01;6;6;
76421;PMS5003;65254;52.354;13.614;2023-06-10T18:48:01;6;6;
76421;PMS5003;65254;52.354;13.614;2023-06-10T18:52:00;6;6;
76421;PMS5003;65254;52.354;13.614;2023-06-10T18:56:00;6;6;
76421;PMS5003;65254;52.354;13.614;2023-06-10T19:00:00;6;6;
76421;PMS5003;65254;52.354;13.614;2023-06-10T19:04:00;5;5;
76421;PMS5003;65254;52.354;13.614;2023-06-10T19:08:00;6;6;
76421;PMS5003;65254;52.354;13.614;2023-06-10T19:12:00;6;6;
76421;PMS5003;65254;52.354;13.614;2023-06-10T19:16:00;6;6;
76421;PMS5003;65254;52.354;13.614;2023-06-10T19:20:00;7;7;
76421;PMS5003;65254;52.354;13.614;2023-06-10T19:24:01;7;7;
76421;PMS5003;65254;52.354;13.614;2023-06-10T19:28:00;9;8;
76421;PMS5003;65254;52.354;13.614;2023-06-10T19:32:01;7;7;
76421;PMS5003;65254;52.354;13.614;2023-06-10T19:36:00;7;7;
76421;PMS5003;65254;52.354;13.614;2023-06-10T19:40:00;9;8;
76421;PMS5003;65254;52.354;13.614;2023-06-10T19:44:00;11;10;
76421;PMS5003;65254;52.354;13.614;2023-06-10T19:48:01;9;8;
76421;PMS5003;65254;52.354;13.614;2023-06-10T19:52:00;9;8;
76421;PMS5003;65254;52.354;13.614;2023-06-10T19:56:00;9;8;
76421;PMS5003;65254;52.354;13.614;2023-06-10T20:00:01;9;8;
76421;PMS5003;65254;52.354;13.614;2023-06-10T20:04:03;9;8;
76421;PMS5003;65254;52.354;13.614;2023-06-10T20:08:00;9;8;
76421;PMS5003;65254;52.354;13.614;2023-06-10T20:12:06;9;8;
76421;PMS5003;65254;52.354;13.614;2023-06-10T20:16:00;8;7;
76421;PMS5003;65254;52.354;13.614;2023-06-10T20:20:00;6;6;
76421;PMS5003;65254;52.354;13.614;2023-06-10T20:24:01;6;6;
76421;PMS5003;65254;52.354;13.614;2023-06-10T20:28:00;6;6;
76421;PMS5003;65254;52.354;13.614;2023-06-10T20:32:00;6;6;
76421;PMS5003;65254;52.354;13.614;2023-06-10T20:36:00;6;6;
76421;PMS5003;65254;52.354;13.614;2023-06-10T20:40:00;6;6;
76421;PMS5003;65254;52.354;13.614;2023-06-10T20:44:00;6;6;
76421;PMS5003;65254;52.354;13.614;2023-06-10T20:48:01;6;6;
76421;PMS5003;65254;52.354;13.614;2023-06-10T20:52:00;6;6;
76421;PMS5003;65254;52.354;13.614;2023-06-10T20:56:00;6;6;
76421;PMS5003;65254;52.354;13.614;2023-06-10T21:00:00;5;5;
76421;PMS5003;65254;52.354;13.614;2023-06-10T21:04:00;6;6;
76421;PMS5003;65254;52.354;13.614;2023-06-10T21:08:01;6;6;
76421;PMS5003;65254;52.354;13.614;2023-06-10T21:12:00;5;5;
76421;PMS5003;65254;52.354;13.614;2023-06-10T21:16:00;5;5;
76421;PMS5003;65254;52.354;13.614;2023-06-10T21:20:00;5;5;
76421;PMS5003;65254;52.354;13.614;2023-06-10T21:24:00;5;5;
76421;PMS5003;65254;52.354;13.614;2023-06-10T21:28:00;4;4;
76421;PMS5003;65254;52.354;13.614;2023-06-10T21:32:00;4;4;
76421;PMS5003;65254;52.354;13.614;2023-06-10T21:36:01;4;4;
76421;PMS5003;65254;52.354;13.614;2023-06-10T21:40:00;4;4;
76421;PMS5003;65254;52.354;13.614;2023-06-10T21:44:00;4;4;
76421;PMS5003;65254;52.354;13.614;2023-06-10T21:48:00;4;4;
76421;PMS5003;65254;52.354;13.614;2023-06-10T21:52:00;4;4;
76421;PMS5003;65254;52.354;13.614;2023-06-10T21:56:00;4;4;
76421;PMS5003;65254;52.354;13.614;2023-06-10T22:00:01;4;4;
76421;PMS5003;65254;52.354;13.614;2023-06-10T22:04:01;4;4;
76421;PMS5003;65254;52.354;13.614;2023-06-10T22:08:02;4;4;
76421;PMS5003;65254;52.354;13.614;2023-06-10T22:12:00;4;4;
76421;PMS5003;65254;52.354;13.614;2023-06-10T22:16:01;3;3;
76421;PMS5003;65254;52.354;13.614;2023-06-10T22:20:00;3;3;
76421;PMS5003;65254;52.354;13.614;2023-06-10T22:24:00;3;3;
76421;PMS5003;65254;52.354;13.614;2023-06-10T22:28:00;4;4;
76421;PMS5003;65254;52.354;13.614;2023-06-10T22:32:00;4;4;
76421;PMS5003;65254;52.354;13.614;2023-06-10T22:36:00;4;4;
76421;PMS5003;65254;52.354;13.614;2023-06-10T22:40:01;3;3;
76421;PMS5003;65254;52.354;13.614;2023-06-10T22:44:00;4;4;
76421;PMS5003;65254;52.354;13.614;2023-06-10T22:48:01;3;3;
76421;PMS5003;65254;52.354;13.614;2023-06-10T22:52:00;4;4;
76421;PMS5003;65254;52.354;13.614;2023-06-10T22:56:00;4;4;
76421;PMS5003;65254;52.354;13.614;2023-06-10T23:00:00;4;4;
76421;PMS5003;65254;52.354;13.614;2023-06-10T23:04:00;4;4;
76421;PMS5003;65254;52.354;13.614;2023-06-10T23:08:00;4;4;
76421;PMS5003;65254;52.354;13.614;2023-06-10T23:12:00;4;4;
76421;PMS5003;65254;52.354;13.614;2023-06-10T23:16:00;5;5;
76421;PMS5003;65254;52.354;13.614;2023-06-10T23:20:00;5;5;
76421;PMS5003;65254;52.354;13.614;2023-06-10T23:24:02;4;4;
76421;PMS5003;65254;52.354;13.614;2023-06-10T23:28:00;4;4;
76421;PMS5003;65254;52.354;13.614;2023-06-10T23:32:01;4;4;
76421;PMS5003;65254;52.354;13.614;2023-06-10T23:36:00;4;4;
76421;PMS5003;65254;52.354;13.614;2023-06-10T23:40:00;4;4;
76421;PMS5003;65254;52.354;13.614;2023-06-10T23:44:01;4;4;
76421;PMS5003;65254;52.354;13.614;2023-06-10T23:48:01;4;4;
76421;PMS5003;65254;52.354;13.614;2023-06-10T23:52:00;4;4;
76421;PMS5003;65254;52.354;13.614;2023-06-10T23:56:00;4;4;
